Airfield :
LOGIN :

Register | Disclaimer

   EN    FR    IT 

 










Legend :    VFR   Marginal VFR   IFR   Intensive IFR   Very Intensive IFR
Visi :
Ceiling :
>= 8 km
>= 3000ft
5 to 8 km
1000 to 3000 ft
1500m to 5 km
500 to 1000 ft
800 to 1500m
200 to 500 ft
< 800m
< 200 ft
Symbols :   Thunderstorms  Fog  Heavy snow  Heavy precipitations  Wind > 20 kt
SIGMETs :     Misc.  Thunderstorms  Icing  Turbulence  Mountain Waves  Volcanic Ashes







- Airport Elevation : 1234 ft
- IATA code : LUX


ELLX - Luxembourg Findel

CURRENT METAR :
  • 210050Z AUTO 20006KT 9999 OVC084/// 08/07 Q1015 NOSIG

EXPIRED METARs :
  • 210020Z AUTO 19006KT 9999 BKN097/// 08/07 Q1016 NOSIG
  • 202350Z 20007KT CAVOK 08/07 Q1016 NOSIG
  • 202320Z AUTO 20005KT 9999 NCD 07/06 Q1015 NOSIG
  • 202250Z 21005KT CAVOK 08/07 Q1016 NOSIG
  • 202220Z 20006KT CAVOK 09/07 Q1015 NOSIG

TAF TAF ELLX
Valid from the 21 at 00:00 until the 22 at 06:00 UTC


202300Z 2100/2206 21005KT CAVOK
PROB40
TEMPO 2102/2106 3000 BR BKN005
TEMPO 2107/2109 RA BKN008
TEMPO 2112/2118 SCT015TCU
TEMPO 2200/2206 23015G25KT SHRA SCT014TCU
ATIS : +352 4798 27300
Met : +352 4798 27010 / 27050
No reported NOTAMs for that airfield.



MET'MAP, your aeronautical weather chart ! - Copyright ORBIFLY December 2007 - Disclaimer

ORBIFLY MET'MAP TEAM :

Programming & Development : Alexandra Zaïnal
Concept & Development : Baudouin d'Aumeries
Co-Development & Prog : Marc-Olivier Méhu
Technical & hardware support : Manuel Goepfert

Contact : metmap@orbifly.com




SOURCES & CREDITS :

   NOAA